sensor_id;sensor_type;location;lat;lon;timestamp;pressure;altitude;pressure_sealevel;temperature;humidity
58421;BME280;44218;55.250;30.178;2022-09-12T00:03:54;1015;;;11.2;77.2
58421;BME280;44218;55.250;30.178;2022-09-12T00:08:39;1014.9;;;11.2;77.1
58421;BME280;44218;55.250;30.178;2022-09-12T00:13:40;1014.9;;;11.2;77.1
58421;BME280;44218;55.250;30.178;2022-09-12T00:18:53;1014.9;;;11.2;77
58421;BME280;44218;55.250;30.178;2022-09-12T00:24:07;1014.9;;;11.1;77.1
58421;BME280;44218;55.250;30.178;2022-09-12T00:28:27;1014.8;;;11.1;77.1
58421;BME280;44218;55.250;30.178;2022-09-12T00:33:17;1014.8;;;11;77.3
58421;BME280;44218;55.250;30.178;2022-09-12T00:38:27;1014.7;;;11;77.3
58421;BME280;44218;55.250;30.178;2022-09-12T00:43:40;1014.7;;;11;77.1
58421;BME280;44218;55.250;30.178;2022-09-12T00:48:43;1014.7;;;11;77.2
58421;BME280;44218;55.250;30.178;2022-09-12T00:53:27;1014.7;;;11;76.9
58421;BME280;44218;55.250;30.178;2022-09-12T00:58:54;1014.7;;;11;76.7
58421;BME280;44218;55.250;30.178;2022-09-12T01:04:05;1014.7;;;11;76.8
58421;BME280;44218;55.250;30.178;2022-09-12T01:08:39;1014.7;;;11;76.5
58421;BME280;44218;55.250;30.178;2022-09-12T01:14:07;1014.6;;;11;76.5
58421;BME280;44218;55.250;30.178;2022-09-12T01:19:13;1014.7;;;11;76.5
58421;BME280;44218;55.250;30.178;2022-09-12T01:23:23;1014.6;;;10.9;76.4
58421;BME280;44218;55.250;30.178;2022-09-12T01:34:09;1014.7;;;10.9;76.6
58421;BME280;44218;55.250;30.178;2022-09-12T01:39:05;1014.7;;;10.9;76.4
58421;BME280;44218;55.250;30.178;2022-09-12T01:43:59;1014.7;;;11;76.5
58421;BME280;44218;55.250;30.178;2022-09-12T01:48:55;1014.7;;;11;76.4
58421;BME280;44218;55.250;30.178;2022-09-12T01:53:57;1014.7;;;10.9;76.5
58421;BME280;44218;55.250;30.178;2022-09-12T01:58:56;1014.6;;;11;76.5
58421;BME280;44218;55.250;30.178;2022-09-12T02:04:03;1014.6;;;10.9;76.3
58421;BME280;44218;55.250;30.178;2022-09-12T02:08:53;1014.7;;;10.9;76.4
58421;BME280;44218;55.250;30.178;2022-09-12T02:13:32;1014.7;;;11;76.4
58421;BME280;44218;55.250;30.178;2022-09-12T02:18:19;1014.7;;;10.9;76.1
58421;BME280;44218;55.250;30.178;2022-09-12T02:23:31;1014.7;;;11;76.4
58421;BME280;44218;55.250;30.178;2022-09-12T02:29:11;1014.6;;;11;76.3
58421;BME280;44218;55.250;30.178;2022-09-12T02:33:59;1014.6;;;10.9;76.3
58421;BME280;44218;55.250;30.178;2022-09-12T02:38:43;1014.6;;;10.9;76.5
58421;BME280;44218;55.250;30.178;2022-09-12T02:43:41;1014.6;;;10.9;76.2
58421;BME280;44218;55.250;30.178;2022-09-12T02:48:57;1014.6;;;10.8;76.5
58421;BME280;44218;55.250;30.178;2022-09-12T02:54:11;1014.5;;;10.8;76.8
58421;BME280;44218;55.250;30.178;2022-09-12T02:58:43;1014.5;;;10.8;76.7
58421;BME280;44218;55.250;30.178;2022-09-12T03:03:34;1014.5;;;10.8;76.8
58421;BME280;44218;55.250;30.178;2022-09-12T03:08:48;1014.5;;;10.9;76.6
58421;BME280;44218;55.250;30.178;2022-09-12T03:13:32;1014.5;;;10.8;76.5
58421;BME280;44218;55.250;30.178;2022-09-12T03:18:40;1014.5;;;10.8;76.7
58421;BME280;44218;55.250;30.178;2022-09-12T03:24:03;1014.5;;;10.8;76.8
58421;BME280;44218;55.250;30.178;2022-09-12T03:29:09;1014.5;;;10.8;76.7
58421;BME280;44218;55.250;30.178;2022-09-12T03:33:55;1014.5;;;10.8;76.8
58421;BME280;44218;55.250;30.178;2022-09-12T03:38:41;1014.5;;;10.8;77
58421;BME280;44218;55.250;30.178;2022-09-12T03:44:11;1014.5;;;10.8;76.9
58421;BME280;44218;55.250;30.178;2022-09-12T03:48:55;1014.5;;;10.8;76.9
58421;BME280;44218;55.250;30.178;2022-09-12T03:54:11;1014.5;;;10.8;77.2
58421;BME280;44218;55.250;30.178;2022-09-12T03:58:45;1014.5;;;10.9;76.8
58421;BME280;44218;55.250;30.178;2022-09-12T04:03:42;1014.6;;;10.9;76.8
58421;BME280;44218;55.250;30.178;2022-09-12T04:09:09;1014.6;;;10.9;76.7
58421;BME280;44218;55.250;30.178;2022-09-12T04:13:42;1014.6;;;10.9;76.6
58421;BME280;44218;55.250;30.178;2022-09-12T04:18:41;1014.6;;;11;76.7
58421;BME280;44218;55.250;30.178;2022-09-12T04:23:55;1014.7;;;11;76.6
58421;BME280;44218;55.250;30.178;2022-09-12T04:28:53;1014.7;;;11;76.6
58421;BME280;44218;55.250;30.178;2022-09-12T04:33:41;1014.7;;;11;76.7
58421;BME280;44218;55.250;30.178;2022-09-12T04:38:55;1014.7;;;11;76.6
58421;BME280;44218;55.250;30.178;2022-09-12T04:44:12;1014.7;;;11;76.6
58421;BME280;44218;55.250;30.178;2022-09-12T04:48:27;1014.8;;;11;76.8
58421;BME280;44218;55.250;30.178;2022-09-12T04:53:31;1014.8;;;11;76.7
58421;BME280;44218;55.250;30.178;2022-09-12T04:59:10;1014.8;;;11;76.6
58421;BME280;44218;55.250;30.178;2022-09-12T05:04:11;1014.9;;;11.1;76.8
58421;BME280;44218;55.250;30.178;2022-09-12T05:09:09;1014.9;;;11.1;76.6
58421;BME280;44218;55.250;30.178;2022-09-12T05:13:32;1014.9;;;11.1;76.8
58421;BME280;44218;55.250;30.178;2022-09-12T05:19:08;1014.9;;;11.2;76.7
58421;BME280;44218;55.250;30.178;2022-09-12T05:24:08;1014.9;;;11.2;76.4
58421;BME280;44218;55.250;30.178;2022-09-12T05:28:41;1014.9;;;11.2;76.4
58421;BME280;44218;55.250;30.178;2022-09-12T05:33:44;1014.9;;;11.2;76.6
58421;BME280;44218;55.250;30.178;2022-09-12T05:38:29;1014.9;;;11.3;76.4
58421;BME280;44218;55.250;30.178;2022-09-12T05:43:19;1015;;;11.3;76.3
58421;BME280;44218;55.250;30.178;2022-09-12T05:48:46;1015;;;11.4;76.4
58421;BME280;44218;55.250;30.178;2022-09-12T05:53:29;1015;;;11.4;76
58421;BME280;44218;55.250;30.178;2022-09-12T05:59:12;1015;;;11.5;76.1
58421;BME280;44218;55.250;30.178;2022-09-12T06:03:52;1015;;;11.5;76.2
58421;BME280;44218;55.250;30.178;2022-09-12T06:08:19;1015;;;11.5;75.8
58421;BME280;44218;55.250;30.178;2022-09-12T06:14:08;1015;;;11.6;75.9
58421;BME280;44218;55.250;30.178;2022-09-12T06:18:52;1015;;;11.7;75.6
58421;BME280;44218;55.250;30.178;2022-09-12T06:24:07;1015;;;11.7;75.4
58421;BME280;44218;55.250;30.178;2022-09-12T06:28:30;1015.1;;;11.7;75.6
58421;BME280;44218;55.250;30.178;2022-09-12T06:33:19;1015.1;;;11.8;75.3
58421;BME280;44218;55.250;30.178;2022-09-12T06:39:09;1015.1;;;11.8;75.6
58421;BME280;44218;55.250;30.178;2022-09-12T06:43:53;1015.1;;;11.9;75.5
58421;BME280;44218;55.250;30.178;2022-09-12T06:48:43;1015.1;;;11.9;75.4
58421;BME280;44218;55.250;30.178;2022-09-12T06:53:54;1015.2;;;11.9;75.1
58421;BME280;44218;55.250;30.178;2022-09-12T06:58:52;1015.2;;;12;75.3
58421;BME280;44218;55.250;30.178;2022-09-12T07:03:42;1015.2;;;12;75
58421;BME280;44218;55.250;30.178;2022-09-12T07:08:57;1015.3;;;11.9;75.2
58421;BME280;44218;55.250;30.178;2022-09-12T07:14:08;1015.4;;;12;75.2
58421;BME280;44218;55.250;30.178;2022-09-12T07:18:19;1015.4;;;12;74.9
58421;BME280;44218;55.250;30.178;2022-09-12T07:24:08;1015.4;;;12.1;75
58421;BME280;44218;55.250;30.178;2022-09-12T07:29:08;1015.5;;;12.1;75
58421;BME280;44218;55.250;30.178;2022-09-12T07:34:07;1015.5;;;12.1;74.7
58421;BME280;44218;55.250;30.178;2022-09-12T07:38:55;1015.5;;;12.2;74.7
58421;BME280;44218;55.250;30.178;2022-09-12T07:44:09;1015.6;;;12.2;74.7
58421;BME280;44218;55.250;30.178;2022-09-12T07:48:19;1015.6;;;12.3;74.3
58421;BME280;44218;55.250;30.178;2022-09-12T07:53:53;1015.6;;;12.3;74.5
58421;BME280;44218;55.250;30.178;2022-09-12T07:59:09;1015.6;;;12.4;74.4
58421;BME280;44218;55.250;30.178;2022-09-12T08:03:44;1015.6;;;12.5;74.2
58421;BME280;44218;55.250;30.178;2022-09-12T08:08:29;1015.6;;;12.5;73.8
58421;BME280;44218;55.250;30.178;2022-09-12T08:13:29;1015.7;;;12.6;73.9
58421;BME280;44218;55.250;30.178;2022-09-12T08:18:19;1015.7;;;12.6;73.7
58421;BME280;44218;55.250;30.178;2022-09-12T08:23:44;1015.7;;;12.5;73.6
58421;BME280;44218;55.250;30.178;2022-09-12T08:28:43;1015.7;;;12.6;73.8
58421;BME280;44218;55.250;30.178;2022-09-12T08:33:54;1015.7;;;12.7;73.5
58421;BME280;44218;55.250;30.178;2022-09-12T08:39:05;1015.7;;;12.8;72.8
58421;BME280;44218;55.250;30.178;2022-09-12T08:43:48;1015.7;;;12.8;73.2
58421;BME280;44218;55.250;30.178;2022-09-12T08:49:09;1015.7;;;12.8;73.3
58421;BME280;44218;55.250;30.178;2022-09-12T08:54:14;1015.7;;;12.9;72.9
58421;BME280;44218;55.250;30.178;2022-09-12T08:58:42;1015.7;;;12.9;72.9
58421;BME280;44218;55.250;30.178;2022-09-12T09:03:26;1015.7;;;13;72.9
58421;BME280;44218;55.250;30.178;2022-09-12T09:08:33;1015.7;;;13.1;72.7
58421;BME280;44218;55.250;30.178;2022-09-12T09:15:13;1015.7;;;13.2;72.4
58421;BME280;44218;55.250;30.178;2022-09-12T09:18:59;1015.7;;;13.2;72.5
58421;BME280;44218;55.250;30.178;2022-09-12T09:23:56;1015.7;;;13.3;72.7
58421;BME280;44218;55.250;30.178;2022-09-12T09:28:56;1015.7;;;13.5;72.2
58421;BME280;44218;55.250;30.178;2022-09-12T09:33:53;1015.7;;;13.4;72.1
58421;BME280;44218;55.250;30.178;2022-09-12T09:38:42;1015.7;;;13.5;72.3
58421;BME280;44218;55.250;30.178;2022-09-12T09:43:43;1015.7;;;13.5;71.6
58421;BME280;44218;55.250;30.178;2022-09-12T09:48:43;1015.7;;;13.5;71.5
58421;BME280;44218;55.250;30.178;2022-09-12T09:53:37;1015.8;;;13.6;71.9
58421;BME280;44218;55.250;30.178;2022-09-12T09:58:30;1015.8;;;13.9;72.1
58421;BME280;44218;55.250;30.178;2022-09-12T10:04:08;1015.8;;;14.1;71.1
58421;BME280;44218;55.250;30.178;2022-09-12T10:09:02;1015.8;;;14.1;70.2
58421;BME280;44218;55.250;30.178;2022-09-12T10:13:52;1015.8;;;14.1;70.1
58421;BME280;44218;55.250;30.178;2022-09-12T10:18:40;1015.8;;;14.2;70
58421;BME280;44218;55.250;30.178;2022-09-12T10:23:41;1015.8;;;14.1;70
58421;BME280;44218;55.250;30.178;2022-09-12T10:29:10;1015.9;;;14.1;69.6
58421;BME280;44218;55.250;30.178;2022-09-12T10:33:41;1015.9;;;13.9;69.8
58421;BME280;44218;55.250;30.178;2022-09-12T10:38:47;1015.9;;;13.8;70.2
58421;BME280;44218;55.250;30.178;2022-09-12T10:43:33;1015.9;;;13.7;70.2
58421;BME280;44218;55.250;30.178;2022-09-12T10:48:22;1016;;;13.8;70.5
58421;BME280;44218;55.250;30.178;2022-09-12T10:53:45;1016;;;13.9;70.4
58421;BME280;44218;55.250;30.178;2022-09-12T11:04:00;1016;;;13.8;70
58421;BME280;44218;55.250;30.178;2022-09-12T11:09:09;1016;;;13.9;70
58421;BME280;44218;55.250;30.178;2022-09-12T11:14:00;1016;;;13.9;69.9
58421;BME280;44218;55.250;30.178;2022-09-12T11:19:10;1016;;;13.9;69.9
58421;BME280;44218;55.250;30.178;2022-09-12T11:24:14;1016;;;13.9;69.8
58421;BME280;44218;55.250;30.178;2022-09-12T11:33:24;1016;;;13.9;69.7
58421;BME280;44218;55.250;30.178;2022-09-12T11:38:55;1016;;;13.9;69.8
58421;BME280;44218;55.250;30.178;2022-09-12T11:44:45;1016;;;14.1;69.7
58421;BME280;44218;55.250;30.178;2022-09-12T11:48:58;1016;;;14.2;69.7
58421;BME280;44218;55.250;30.178;2022-09-12T11:53:58;1015.9;;;14.2;69.5
58421;BME280;44218;55.250;30.178;2022-09-12T11:59:03;1016;;;14.2;70
58421;BME280;44218;55.250;30.178;2022-09-12T12:03:51;1016;;;14.2;70.2
58421;BME280;44218;55.250;30.178;2022-09-12T12:08:41;1016;;;14.3;69.7
58421;BME280;44218;55.250;30.178;2022-09-12T12:14:14;1016;;;14.3;69.4
58421;BME280;44218;55.250;30.178;2022-09-12T12:19:22;1016;;;14.4;69.6
58421;BME280;44218;55.250;30.178;2022-09-12T12:23:31;1016;;;14.6;69.4
58421;BME280;44218;55.250;30.178;2022-09-12T12:34:18;1015.9;;;14.9;68.7
58421;BME280;44218;55.250;30.178;2022-09-12T12:39:53;1015.9;;;15;68.3
58421;BME280;44218;55.250;30.178;2022-09-12T12:54:25;1016.1;;;14.9;67.3
58421;BME280;44218;55.250;30.178;2022-09-12T12:59:18;1016.1;;;14.8;67.4
58421;BME280;44218;55.250;30.178;2022-09-12T13:03:40;1016.1;;;14.7;67.6
58421;BME280;44218;55.250;30.178;2022-09-12T13:08:44;1016.2;;;14.4;68.3
58421;BME280;44218;55.250;30.178;2022-09-12T13:13:45;1016.2;;;14.3;68.8
58421;BME280;44218;55.250;30.178;2022-09-12T13:18:23;1016.2;;;14.2;68.9
58421;BME280;44218;55.250;30.178;2022-09-12T13:23:44;1016.3;;;14.2;69.3
58421;BME280;44218;55.250;30.178;2022-09-12T13:28:43;1016.3;;;14.3;69.1
58421;BME280;44218;55.250;30.178;2022-09-12T13:34:07;1016.3;;;14.2;69
58421;BME280;44218;55.250;30.178;2022-09-12T13:40:04;1016.3;;;14.2;69.5
58421;BME280;44218;55.250;30.178;2022-09-12T13:43:42;1016.3;;;14.1;69.7
58421;BME280;44218;55.250;30.178;2022-09-12T13:49:41;1016.3;;;14.1;69.9
58421;BME280;44218;55.250;30.178;2022-09-12T13:53:54;1016.3;;;14.1;70.4
58421;BME280;44218;55.250;30.178;2022-09-12T13:59:09;1016.3;;;14.1;70.2
58421;BME280;44218;55.250;30.178;2022-09-12T14:03:31;1016.4;;;14.1;70
58421;BME280;44218;55.250;30.178;2022-09-12T14:08:19;1016.4;;;14.1;69.8
58421;BME280;44218;55.250;30.178;2022-09-12T14:14:05;1016.4;;;14.1;70.1
58421;BME280;44218;55.250;30.178;2022-09-12T14:18:55;1016.3;;;14.2;70
58421;BME280;44218;55.250;30.178;2022-09-12T14:23:41;1016.3;;;14.3;69.8
58421;BME280;44218;55.250;30.178;2022-09-12T14:28:53;1016.3;;;14.3;69.4
58421;BME280;44218;55.250;30.178;2022-09-12T14:33:53;1016.3;;;14.4;69.1
58421;BME280;44218;55.250;30.178;2022-09-12T14:38:30;1016.3;;;14.5;69.1
58421;BME280;44218;55.250;30.178;2022-09-12T14:43:43;1016.2;;;14.4;68.9
58421;BME280;44218;55.250;30.178;2022-09-12T14:49:11;1016.2;;;14.5;69
58421;BME280;44218;55.250;30.178;2022-09-12T14:53:21;1016.2;;;14.6;69.5
58421;BME280;44218;55.250;30.178;2022-09-12T14:58:21;1016.2;;;14.7;69.4
58421;BME280;44218;55.250;30.178;2022-09-12T15:04:05;1016.2;;;14.8;68.4
58421;BME280;44218;55.250;30.178;2022-09-12T15:09:11;1016.3;;;14.8;68.5
58421;BME280;44218;55.250;30.178;2022-09-12T15:14:11;1016.4;;;14.9;68.4
58421;BME280;44218;55.250;30.178;2022-09-12T15:18:39;1016.4;;;14.9;68.4
58421;BME280;44218;55.250;30.178;2022-09-12T15:24:07;1016.4;;;14.9;68.6
58421;BME280;44218;55.250;30.178;2022-09-12T15:29:10;1016.4;;;14.9;68.7
58421;BME280;44218;55.250;30.178;2022-09-12T15:33:41;1016.4;;;14.9;68.6
58421;BME280;44218;55.250;30.178;2022-09-12T15:38:42;1016.5;;;14.8;68.9
58421;BME280;44218;55.250;30.178;2022-09-12T15:43:29;1016.5;;;14.7;69.3
58421;BME280;44218;55.250;30.178;2022-09-12T15:48:19;1016.5;;;14.7;69.2
58421;BME280;44218;55.250;30.178;2022-09-12T15:53:53;1016.5;;;14.7;69.2
58421;BME280;44218;55.250;30.178;2022-09-12T15:58:29;1016.6;;;14.6;69.5
58421;BME280;44218;55.250;30.178;2022-09-12T16:04:26;1016.6;;;14.6;69.8
58421;BME280;44218;55.250;30.178;2022-09-12T16:08:53;1016.7;;;14.6;69.9
58421;BME280;44218;55.250;30.178;2022-09-12T16:13:29;1016.7;;;14.4;69.9
58421;BME280;44218;55.250;30.178;2022-09-12T16:19:08;1016.7;;;14.2;70.7
58421;BME280;44218;55.250;30.178;2022-09-12T16:23:53;1016.7;;;14.1;71.3
58421;BME280;44218;55.250;30.178;2022-09-12T16:29:07;1016.7;;;14;71.6
58421;BME280;44218;55.250;30.178;2022-09-12T16:33:30;1016.8;;;13.8;72.3
58421;BME280;44218;55.250;30.178;2022-09-12T16:38:20;1016.8;;;13.7;73
58421;BME280;44218;55.250;30.178;2022-09-12T16:43:32;1016.9;;;13.7;73
58421;BME280;44218;55.250;30.178;2022-09-12T16:49:08;1016.9;;;13.6;73.3
58421;BME280;44218;55.250;30.178;2022-09-12T16:53:57;1016.9;;;13.6;73.8
58421;BME280;44218;55.250;30.178;2022-09-12T16:58:55;1017;;;13.6;73.8
58421;BME280;44218;55.250;30.178;2022-09-12T17:03:54;1017;;;13.6;73.7
58421;BME280;44218;55.250;30.178;2022-09-12T17:08:54;1017.1;;;13.5;74.2
58421;BME280;44218;55.250;30.178;2022-09-12T17:13:45;1017.1;;;13.5;74.5
58421;BME280;44218;55.250;30.178;2022-09-12T17:18:55;1017.1;;;13.5;74.6
58421;BME280;44218;55.250;30.178;2022-09-12T17:23:29;1017.2;;;13.4;74.7
58421;BME280;44218;55.250;30.178;2022-09-12T17:28:29;1017.2;;;13.3;75.2
58421;BME280;44218;55.250;30.178;2022-09-12T17:33:32;1017.2;;;13.3;75.4
58421;BME280;44218;55.250;30.178;2022-09-12T17:39:07;1017.2;;;13.3;75.5
58421;BME280;44218;55.250;30.178;2022-09-12T17:44:08;1017.2;;;13.3;75.6
58421;BME280;44218;55.250;30.178;2022-09-12T17:48:30;1017.2;;;13.3;76
58421;BME280;44218;55.250;30.178;2022-09-12T17:53:41;1017.2;;;13.3;76
58421;BME280;44218;55.250;30.178;2022-09-12T17:58:56;1017.2;;;13.3;76
58421;BME280;44218;55.250;30.178;2022-09-12T18:04:07;1017.2;;;13.3;76.1
58421;BME280;44218;55.250;30.178;2022-09-12T18:08:29;1017.2;;;13.3;76.3
58421;BME280;44218;55.250;30.178;2022-09-12T18:13:19;1017.2;;;13.4;76
58421;BME280;44218;55.250;30.178;2022-09-12T18:18:19;1017.2;;;13.4;76
58421;BME280;44218;55.250;30.178;2022-09-12T18:23:19;1017.2;;;13.4;76.1
58421;BME280;44218;55.250;30.178;2022-09-12T18:28:44;1017.1;;;13.5;75.8
58421;BME280;44218;55.250;30.178;2022-09-12T18:33:44;1017.1;;;13.5;75.5
58421;BME280;44218;55.250;30.178;2022-09-12T18:38:51;1017.1;;;13.4;75.7
58421;BME280;44218;55.250;30.178;2022-09-12T18:43:56;1017.1;;;13.4;75.9
58421;BME280;44218;55.250;30.178;2022-09-12T18:48:40;1017.1;;;13.4;75.7
58421;BME280;44218;55.250;30.178;2022-09-12T18:54:10;1017.1;;;13.3;75.7
58421;BME280;44218;55.250;30.178;2022-09-12T18:59:08;1017.1;;;13.4;75.8
58421;BME280;44218;55.250;30.178;2022-09-12T19:03:20;1017.2;;;13.3;75.8
58421;BME280;44218;55.250;30.178;2022-09-12T19:08:32;1017.2;;;13.3;75.8
58421;BME280;44218;55.250;30.178;2022-09-12T19:13:44;1017.2;;;13.3;76.3
58421;BME280;44218;55.250;30.178;2022-09-12T19:19:08;1017.2;;;13.3;76.2
58421;BME280;44218;55.250;30.178;2022-09-12T19:23:56;1017.2;;;13.4;75.9
58421;BME280;44218;55.250;30.178;2022-09-12T19:28:54;1017.2;;;13.4;76
58421;BME280;44218;55.250;30.178;2022-09-12T19:33:40;1017.2;;;13.4;76
58421;BME280;44218;55.250;30.178;2022-09-12T19:38:51;1017.2;;;13.5;75.8
58421;BME280;44218;55.250;30.178;2022-09-12T19:43:20;1017.2;;;13.4;75.7
58421;BME280;44218;55.250;30.178;2022-09-12T19:48:55;1017.2;;;13.4;75.7
58421;BME280;44218;55.250;30.178;2022-09-12T19:53:52;1017.2;;;13.4;75.8
58421;BME280;44218;55.250;30.178;2022-09-12T19:58:30;1017.2;;;13.4;75.6
58421;BME280;44218;55.250;30.178;2022-09-12T20:03:42;1017.2;;;13.3;75.9
58421;BME280;44218;55.250;30.178;2022-09-12T20:09:05;1017.2;;;13.2;76.3
58421;BME280;44218;55.250;30.178;2022-09-12T20:13:44;1017.2;;;13.2;76.6
58421;BME280;44218;55.250;30.178;2022-09-12T20:18:42;1017.2;;;13.3;76.4
58421;BME280;44218;55.250;30.178;2022-09-12T20:23:42;1017.2;;;13.2;76.5
58421;BME280;44218;55.250;30.178;2022-09-12T20:28:54;1017.2;;;13.2;76.7
58421;BME280;44218;55.250;30.178;2022-09-12T20:34:06;1017.2;;;13.2;76.9
58421;BME280;44218;55.250;30.178;2022-09-12T20:38:38;1017.3;;;13.2;76.8
58421;BME280;44218;55.250;30.178;2022-09-12T20:43:19;1017.3;;;13.2;76.8
58421;BME280;44218;55.250;30.178;2022-09-12T20:48:29;1017.3;;;13.2;77
58421;BME280;44218;55.250;30.178;2022-09-12T20:53:51;1017.3;;;13.2;76.7
58421;BME280;44218;55.250;30.178;2022-09-12T20:58:44;1017.4;;;13.1;76.9
58421;BME280;44218;55.250;30.178;2022-09-12T21:03:44;1017.4;;;13.1;77.2
58421;BME280;44218;55.250;30.178;2022-09-12T21:09:02;1017.4;;;13.1;77.3
58421;BME280;44218;55.250;30.178;2022-09-12T21:13:50;1017.4;;;13.1;77.2
58421;BME280;44218;55.250;30.178;2022-09-12T21:18:42;1017.4;;;13.1;77.3
58421;BME280;44218;55.250;30.178;2022-09-12T21:24:06;1017.4;;;13;77.7
58421;BME280;44218;55.250;30.178;2022-09-12T21:28:52;1017.4;;;13.1;77.6
58421;BME280;44218;55.250;30.178;2022-09-12T21:34:08;1017.4;;;13.1;77.3
58421;BME280;44218;55.250;30.178;2022-09-12T21:38:30;1017.4;;;13.1;77.3
58421;BME280;44218;55.250;30.178;2022-09-12T21:43:30;1017.4;;;13.1;77.3
58421;BME280;44218;55.250;30.178;2022-09-12T21:49:08;1017.4;;;13.2;77.1
58421;BME280;44218;55.250;30.178;2022-09-12T21:53:52;1017.5;;;13.1;76.9
58421;BME280;44218;55.250;30.178;2022-09-12T21:58:42;1017.5;;;13.1;76.9
58421;BME280;44218;55.250;30.178;2022-09-12T22:03:54;1017.5;;;13.1;77.1
58421;BME280;44218;55.250;30.178;2022-09-12T22:08:50;1017.5;;;13.1;76.8
58421;BME280;44218;55.250;30.178;2022-09-12T22:13:42;1017.5;;;13.1;76.8
58421;BME280;44218;55.250;30.178;2022-09-12T22:18:54;1017.5;;;13.1;76.9
58421;BME280;44218;55.250;30.178;2022-09-12T22:24:04;1017.4;;;13.1;76.9
58421;BME280;44218;55.250;30.178;2022-09-12T22:28:20;1017.4;;;13.1;76.5
58421;BME280;44218;55.250;30.178;2022-09-12T22:33:20;1017.5;;;13.1;76.6
58421;BME280;44218;55.250;30.178;2022-09-12T22:39:06;1017.5;;;13.1;76.7
58421;BME280;44218;55.250;30.178;2022-09-12T22:44:04;1017.5;;;13.1;76.5
58421;BME280;44218;55.250;30.178;2022-09-12T22:49:06;1017.5;;;13.1;76.3
58421;BME280;44218;55.250;30.178;2022-09-12T22:53:20;1017.5;;;13.1;76.4
58421;BME280;44218;55.250;30.178;2022-09-12T22:59:04;1017.4;;;13.1;76.2
58421;BME280;44218;55.250;30.178;2022-09-12T23:04:04;1017.4;;;13.1;76
58421;BME280;44218;55.250;30.178;2022-09-12T23:08:28;1017.3;;;13.1;76.2
58421;BME280;44218;55.250;30.178;2022-09-12T23:13:28;1017.4;;;13.1;76.4
58421;BME280;44218;55.250;30.178;2022-09-12T23:18:28;1017.3;;;13;76.1
58421;BME280;44218;55.250;30.178;2022-09-12T23:23:30;1017.3;;;13;76.3
58421;BME280;44218;55.250;30.178;2022-09-12T23:28:40;1017.3;;;13;76.5
58421;BME280;44218;55.250;30.178;2022-09-12T23:33:18;1017.2;;;12.9;76.2
58421;BME280;44218;55.250;30.178;2022-09-12T23:39:00;1017.2;;;12.9;76.2
58421;BME280;44218;55.250;30.178;2022-09-12T23:44:02;1017.2;;;12.9;76.2
58421;BME280;44218;55.250;30.178;2022-09-12T23:48:26;1017.2;;;12.8;75.9
58421;BME280;44218;55.250;30.178;2022-09-12T23:54:02;1017.2;;;12.7;75.9
58421;BME280;44218;55.250;30.178;2022-09-12T23:58:50;1017.2;;;12.7;75.7
